sensor_id;sensor_type;location;lat;lon;timestamp;P1;durP1;ratioP1;P2;durP2;ratioP2
39970;SDS011;35425;51.142;17.178;2023-02-15T00:01:45;10.30;;;8.68;;
39970;SDS011;35425;51.142;17.178;2023-02-15T00:04:12;10.20;;;8.98;;
39970;SDS011;35425;51.142;17.178;2023-02-15T00:06:39;11.05;;;9.00;;
39970;SDS011;35425;51.142;17.178;2023-02-15T00:09:06;10.40;;;8.80;;
39970;SDS011;35425;51.142;17.178;2023-02-15T00:11:32;9.45;;;8.52;;
39970;SDS011;35425;51.142;17.178;2023-02-15T00:14:21;9.18;;;8.10;;
39970;SDS011;35425;51.142;17.178;2023-02-15T00:16:48;10.02;;;8.95;;
39970;SDS011;35425;51.142;17.178;2023-02-15T00:19:16;9.93;;;8.57;;
39970;SDS011;35425;51.142;17.178;2023-02-15T00:21:43;9.93;;;8.48;;
39970;SDS011;35425;51.142;17.178;2023-02-15T00:24:11;10.45;;;8.68;;
39970;SDS011;35425;51.142;17.178;2023-02-15T00:26:38;10.95;;;8.75;;
39970;SDS011;35425;51.142;17.178;2023-02-15T00:29:05;9.40;;;8.32;;
39970;SDS011;35425;51.142;17.178;2023-02-15T00:31:32;9.27;;;7.88;;
39970;SDS011;35425;51.142;17.178;2023-02-15T00:34:03;9.32;;;8.23;;
39970;SDS011;35425;51.142;17.178;2023-02-15T00:36:29;9.57;;;8.20;;
39970;SDS011;35425;51.142;17.178;2023-02-15T00:38:56;9.25;;;8.27;;
39970;SDS011;35425;51.142;17.178;2023-02-15T00:41:23;10.57;;;8.80;;
39970;SDS011;35425;51.142;17.178;2023-02-15T00:43:49;10.13;;;8.75;;
39970;SDS011;35425;51.142;17.178;2023-02-15T00:46:16;9.77;;;8.68;;
39970;SDS011;35425;51.142;17.178;2023-02-15T00:48:42;9.85;;;8.10;;
39970;SDS011;35425;51.142;17.178;2023-02-15T00:51:09;8.80;;;7.85;;
39970;SDS011;35425;51.142;17.178;2023-02-15T00:53:35;9.73;;;8.50;;
39970;SDS011;35425;51.142;17.178;2023-02-15T00:56:02;9.25;;;7.53;;
39970;SDS011;35425;51.142;17.178;2023-02-15T00:58:28;9.77;;;8.10;;
39970;SDS011;35425;51.142;17.178;2023-02-15T01:00:55;9.18;;;7.82;;
39970;SDS011;35425;51.142;17.178;2023-02-15T01:03:28;9.48;;;7.65;;
39970;SDS011;35425;51.142;17.178;2023-02-15T01:05:54;9.30;;;7.68;;
39970;SDS011;35425;51.142;17.178;2023-02-15T01:08:21;8.18;;;7.32;;
39970;SDS011;35425;51.142;17.178;2023-02-15T01:10:47;8.80;;;7.90;;
39970;SDS011;35425;51.142;17.178;2023-02-15T01:13:14;8.95;;;7.90;;
39970;SDS011;35425;51.142;17.178;2023-02-15T01:15:41;9.43;;;7.93;;
39970;SDS011;35425;51.142;17.178;2023-02-15T01:18:12;8.60;;;7.65;;
39970;SDS011;35425;51.142;17.178;2023-02-15T01:20:39;9.57;;;7.85;;
39970;SDS011;35425;51.142;17.178;2023-02-15T01:23:07;8.68;;;7.57;;
39970;SDS011;35425;51.142;17.178;2023-02-15T01:25:34;8.40;;;7.05;;
39970;SDS011;35425;51.142;17.178;2023-02-15T01:28:01;8.30;;;7.47;;
39970;SDS011;35425;51.142;17.178;2023-02-15T01:30:28;8.15;;;7.35;;
39970;SDS011;35425;51.142;17.178;2023-02-15T01:32:54;8.45;;;7.35;;
39970;SDS011;35425;51.142;17.178;2023-02-15T01:35:21;8.68;;;7.15;;
39970;SDS011;35425;51.142;17.178;2023-02-15T01:37:47;8.85;;;7.93;;
39970;SDS011;35425;51.142;17.178;2023-02-15T01:40:15;7.93;;;7.13;;
39970;SDS011;35425;51.142;17.178;2023-02-15T01:42:42;8.52;;;7.45;;
39970;SDS011;35425;51.142;17.178;2023-02-15T01:45:23;8.38;;;7.50;;
39970;SDS011;35425;51.142;17.178;2023-02-15T01:47:52;8.60;;;7.65;;
39970;SDS011;35425;51.142;17.178;2023-02-15T01:50:25;8.32;;;7.07;;
39970;SDS011;35425;51.142;17.178;2023-02-15T01:55:33;8.30;;;7.40;;
39970;SDS011;35425;51.142;17.178;2023-02-15T01:58:01;7.95;;;6.97;;
39970;SDS011;35425;51.142;17.178;2023-02-15T02:00:28;8.50;;;7.22;;
39970;SDS011;35425;51.142;17.178;2023-02-15T02:02:55;7.95;;;7.07;;
39970;SDS011;35425;51.142;17.178;2023-02-15T02:05:22;8.63;;;7.07;;
39970;SDS011;35425;51.142;17.178;2023-02-15T02:07:50;8.18;;;7.30;;
39970;SDS011;35425;51.142;17.178;2023-02-15T02:10:19;8.45;;;7.50;;
39970;SDS011;35425;51.142;17.178;2023-02-15T02:12:46;8.68;;;7.50;;
39970;SDS011;35425;51.142;17.178;2023-02-15T02:15:14;8.82;;;7.47;;
39970;SDS011;35425;51.142;17.178;2023-02-15T02:17:55;8.40;;;7.50;;
39970;SDS011;35425;51.142;17.178;2023-02-15T02:20:40;10.05;;;7.95;;
39970;SDS011;35425;51.142;17.178;2023-02-15T02:33:25;8.70;;;7.78;;
39970;SDS011;35425;51.142;17.178;2023-02-15T02:36:02;8.50;;;7.05;;
39970;SDS011;35425;51.142;17.178;2023-02-15T02:41:36;8.88;;;7.38;;
39970;SDS011;35425;51.142;17.178;2023-02-15T02:44:09;9.15;;;7.57;;
39970;SDS011;35425;51.142;17.178;2023-02-15T02:46:48;8.38;;;7.57;;
39970;SDS011;35425;51.142;17.178;2023-02-15T02:49:16;7.35;;;6.65;;
39970;SDS011;35425;51.142;17.178;2023-02-15T02:51:42;8.40;;;7.15;;
39970;SDS011;35425;51.142;17.178;2023-02-15T02:54:09;9.32;;;7.65;;
39970;SDS011;35425;51.142;17.178;2023-02-15T02:56:43;8.30;;;7.40;;
39970;SDS011;35425;51.142;17.178;2023-02-15T02:59:18;8.23;;;7.20;;
39970;SDS011;35425;51.142;17.178;2023-02-15T03:01:48;7.50;;;6.68;;
39970;SDS011;35425;51.142;17.178;2023-02-15T03:04:21;8.70;;;7.13;;
39970;SDS011;35425;51.142;17.178;2023-02-15T03:06:57;8.43;;;7.53;;
39970;SDS011;35425;51.142;17.178;2023-02-15T03:09:26;8.38;;;7.20;;
39970;SDS011;35425;51.142;17.178;2023-02-15T03:12:00;7.82;;;6.97;;
39970;SDS011;35425;51.142;17.178;2023-02-15T03:14:29;7.80;;;6.93;;
39970;SDS011;35425;51.142;17.178;2023-02-15T03:16:56;7.95;;;6.95;;
39970;SDS011;35425;51.142;17.178;2023-02-15T03:19:23;7.88;;;6.80;;
39970;SDS011;35425;51.142;17.178;2023-02-15T03:21:51;7.38;;;6.28;;
39970;SDS011;35425;51.142;17.178;2023-02-15T03:24:25;7.90;;;6.38;;
39970;SDS011;35425;51.142;17.178;2023-02-15T03:26:52;6.55;;;5.85;;
39970;SDS011;35425;51.142;17.178;2023-02-15T03:29:21;7.30;;;6.22;;
39970;SDS011;35425;51.142;17.178;2023-02-15T03:31:49;7.18;;;6.43;;
39970;SDS011;35425;51.142;17.178;2023-02-15T03:34:18;7.43;;;6.43;;
39970;SDS011;35425;51.142;17.178;2023-02-15T03:42:17;6.90;;;5.70;;
39970;SDS011;35425;51.142;17.178;2023-02-15T03:45:47;6.28;;;5.63;;
39970;SDS011;35425;51.142;17.178;2023-02-15T03:47:41;7.18;;;6.10;;
39970;SDS011;35425;51.142;17.178;2023-02-15T03:50:25;7.03;;;6.07;;
39970;SDS011;35425;51.142;17.178;2023-02-15T03:53:12;7.05;;;6.03;;
39970;SDS011;35425;51.142;17.178;2023-02-15T03:55:40;7.45;;;6.03;;
39970;SDS011;35425;51.142;17.178;2023-02-15T03:58:06;7.05;;;5.88;;
39970;SDS011;35425;51.142;17.178;2023-02-15T04:00:54;6.78;;;5.95;;
39970;SDS011;35425;51.142;17.178;2023-02-15T04:03:40;6.35;;;5.63;;
39970;SDS011;35425;51.142;17.178;2023-02-15T04:06:07;6.75;;;5.82;;
39970;SDS011;35425;51.142;17.178;2023-02-15T04:08:35;6.13;;;5.32;;
39970;SDS011;35425;51.142;17.178;2023-02-15T04:11:20;5.80;;;5.20;;
39970;SDS011;35425;51.142;17.178;2023-02-15T04:13:47;7.20;;;6.20;;
39970;SDS011;35425;51.142;17.178;2023-02-15T04:16:13;5.88;;;5.28;;
39970;SDS011;35425;51.142;17.178;2023-02-15T04:18:41;6.43;;;5.80;;
39970;SDS011;35425;51.142;17.178;2023-02-15T04:21:27;6.72;;;5.97;;
39970;SDS011;35425;51.142;17.178;2023-02-15T04:24:13;6.43;;;5.68;;
39970;SDS011;35425;51.142;17.178;2023-02-15T04:26:58;5.72;;;5.13;;
39970;SDS011;35425;51.142;17.178;2023-02-15T04:29:26;5.90;;;5.07;;
39970;SDS011;35425;51.142;17.178;2023-02-15T04:31:53;6.10;;;5.22;;
39970;SDS011;35425;51.142;17.178;2023-02-15T04:34:20;5.95;;;5.32;;
39970;SDS011;35425;51.142;17.178;2023-02-15T04:36:46;6.97;;;5.32;;
39970;SDS011;35425;51.142;17.178;2023-02-15T04:39:13;5.78;;;5.10;;
39970;SDS011;35425;51.142;17.178;2023-02-15T04:41:40;6.13;;;5.32;;
39970;SDS011;35425;51.142;17.178;2023-02-15T04:44:06;5.32;;;4.82;;
39970;SDS011;35425;51.142;17.178;2023-02-15T04:46:33;6.03;;;5.15;;
39970;SDS011;35425;51.142;17.178;2023-02-15T04:48:59;6.35;;;4.85;;
39970;SDS011;35425;51.142;17.178;2023-02-15T04:51:26;5.80;;;5.20;;
39970;SDS011;35425;51.142;17.178;2023-02-15T04:53:52;5.45;;;4.95;;
39970;SDS011;35425;51.142;17.178;2023-02-15T04:56:19;5.25;;;4.75;;
39970;SDS011;35425;51.142;17.178;2023-02-15T04:58:46;5.82;;;5.22;;
39970;SDS011;35425;51.142;17.178;2023-02-15T05:01:12;5.63;;;5.03;;
39970;SDS011;35425;51.142;17.178;2023-02-15T05:03:39;5.80;;;5.03;;
39970;SDS011;35425;51.142;17.178;2023-02-15T05:06:05;5.72;;;4.80;;
39970;SDS011;35425;51.142;17.178;2023-02-15T05:08:32;5.10;;;4.20;;
39970;SDS011;35425;51.142;17.178;2023-02-15T05:10:58;5.18;;;4.68;;
39970;SDS011;35425;51.142;17.178;2023-02-15T05:13:25;4.85;;;4.35;;
39970;SDS011;35425;51.142;17.178;2023-02-15T05:15:51;5.32;;;4.70;;
39970;SDS011;35425;51.142;17.178;2023-02-15T05:18:19;5.50;;;4.97;;
39970;SDS011;35425;51.142;17.178;2023-02-15T05:20:46;4.97;;;4.45;;
39970;SDS011;35425;51.142;17.178;2023-02-15T05:23:13;4.95;;;4.45;;
39970;SDS011;35425;51.142;17.178;2023-02-15T05:25:39;4.80;;;4.32;;
39970;SDS011;35425;51.142;17.178;2023-02-15T05:28:26;5.68;;;4.47;;
39970;SDS011;35425;51.142;17.178;2023-02-15T05:31:02;5.20;;;4.45;;
39970;SDS011;35425;51.142;17.178;2023-02-15T05:33:29;5.38;;;4.63;;
39970;SDS011;35425;51.142;17.178;2023-02-15T05:35:55;4.50;;;4.10;;
39970;SDS011;35425;51.142;17.178;2023-02-15T05:38:21;4.70;;;4.18;;
39970;SDS011;35425;51.142;17.178;2023-02-15T05:40:48;4.80;;;4.30;;
39970;SDS011;35425;51.142;17.178;2023-02-15T05:43:15;4.88;;;4.30;;
39970;SDS011;35425;51.142;17.178;2023-02-15T05:45:45;5.38;;;4.43;;
39970;SDS011;35425;51.142;17.178;2023-02-15T05:48:12;4.97;;;4.05;;
39970;SDS011;35425;51.142;17.178;2023-02-15T05:50:38;5.30;;;4.53;;
39970;SDS011;35425;51.142;17.178;2023-02-15T05:53:05;4.55;;;4.15;;
39970;SDS011;35425;51.142;17.178;2023-02-15T05:55:31;4.65;;;4.15;;
39970;SDS011;35425;51.142;17.178;2023-02-15T05:57:58;4.40;;;4.00;;
39970;SDS011;35425;51.142;17.178;2023-02-15T06:00:24;5.70;;;4.60;;
39970;SDS011;35425;51.142;17.178;2023-02-15T06:02:51;4.97;;;4.47;;
39970;SDS011;35425;51.142;17.178;2023-02-15T06:05:17;5.20;;;4.45;;
39970;SDS011;35425;51.142;17.178;2023-02-15T06:07:44;4.97;;;4.47;;
39970;SDS011;35425;51.142;17.178;2023-02-15T06:10:11;5.07;;;4.57;;
39970;SDS011;35425;51.142;17.178;2023-02-15T06:12:37;6.07;;;4.60;;
39970;SDS011;35425;51.142;17.178;2023-02-15T06:15:04;5.05;;;4.55;;
39970;SDS011;35425;51.142;17.178;2023-02-15T06:17:31;5.20;;;4.68;;
39970;SDS011;35425;51.142;17.178;2023-02-15T06:19:57;4.97;;;4.45;;
39970;SDS011;35425;51.142;17.178;2023-02-15T06:22:24;5.93;;;5.20;;
39970;SDS011;35425;51.142;17.178;2023-02-15T06:24:50;5.80;;;4.82;;
39970;SDS011;35425;51.142;17.178;2023-02-15T06:27:16;5.82;;;4.78;;
39970;SDS011;35425;51.142;17.178;2023-02-15T06:29:43;5.88;;;4.82;;
39970;SDS011;35425;51.142;17.178;2023-02-15T06:32:09;5.28;;;4.53;;
39970;SDS011;35425;51.142;17.178;2023-02-15T06:34:36;6.05;;;5.45;;
39970;SDS011;35425;51.142;17.178;2023-02-15T06:37:02;6.30;;;5.15;;
39970;SDS011;35425;51.142;17.178;2023-02-15T06:39:29;5.18;;;4.68;;
39970;SDS011;35425;51.142;17.178;2023-02-15T06:41:55;5.05;;;4.57;;
39970;SDS011;35425;51.142;17.178;2023-02-15T06:44:23;5.70;;;5.15;;
39970;SDS011;35425;51.142;17.178;2023-02-15T06:46:50;5.90;;;5.20;;
39970;SDS011;35425;51.142;17.178;2023-02-15T06:49:16;5.30;;;4.78;;
39970;SDS011;35425;51.142;17.178;2023-02-15T06:51:42;5.45;;;4.70;;
39970;SDS011;35425;51.142;17.178;2023-02-15T06:54:09;5.90;;;4.97;;
39970;SDS011;35425;51.142;17.178;2023-02-15T06:56:35;5.18;;;4.65;;
39970;SDS011;35425;51.142;17.178;2023-02-15T06:59:02;5.47;;;4.97;;
39970;SDS011;35425;51.142;17.178;2023-02-15T07:01:29;5.35;;;4.85;;
39970;SDS011;35425;51.142;17.178;2023-02-15T07:03:56;5.22;;;4.72;;
39970;SDS011;35425;51.142;17.178;2023-02-15T07:06:22;5.78;;;4.85;;
39970;SDS011;35425;51.142;17.178;2023-02-15T07:08:48;5.55;;;4.97;;
39970;SDS011;35425;51.142;17.178;2023-02-15T07:11:15;6.07;;;5.13;;
39970;SDS011;35425;51.142;17.178;2023-02-15T07:14:00;5.70;;;5.03;;
39970;SDS011;35425;51.142;17.178;2023-02-15T07:16:26;6.07;;;5.05;;
39970;SDS011;35425;51.142;17.178;2023-02-15T07:18:53;5.78;;;4.85;;
39970;SDS011;35425;51.142;17.178;2023-02-15T07:21:19;5.50;;;4.90;;
39970;SDS011;35425;51.142;17.178;2023-02-15T07:23:46;4.78;;;4.22;;
39970;SDS011;35425;51.142;17.178;2023-02-15T07:26:12;5.57;;;4.70;;
39970;SDS011;35425;51.142;17.178;2023-02-15T07:28:39;5.15;;;4.57;;
39970;SDS011;35425;51.142;17.178;2023-02-15T07:31:05;4.78;;;4.28;;
39970;SDS011;35425;51.142;17.178;2023-02-15T07:33:32;5.25;;;4.75;;
39970;SDS011;35425;51.142;17.178;2023-02-15T07:35:59;5.10;;;4.35;;
39970;SDS011;35425;51.142;17.178;2023-02-15T07:38:32;4.82;;;4.32;;
39970;SDS011;35425;51.142;17.178;2023-02-15T07:41:03;5.28;;;4.78;;
39970;SDS011;35425;51.142;17.178;2023-02-15T07:43:32;5.60;;;4.10;;
39970;SDS011;35425;51.142;17.178;2023-02-15T07:45:59;5.43;;;4.70;;
39970;SDS011;35425;51.142;17.178;2023-02-15T07:48:27;4.85;;;4.28;;
39970;SDS011;35425;51.142;17.178;2023-02-15T07:50:53;4.63;;;4.22;;
39970;SDS011;35425;51.142;17.178;2023-02-15T07:53:19;8.10;;;5.25;;
39970;SDS011;35425;51.142;17.178;2023-02-15T07:55:46;5.32;;;4.60;;
39970;SDS011;35425;51.142;17.178;2023-02-15T07:58:12;5.25;;;4.70;;
39970;SDS011;35425;51.142;17.178;2023-02-15T08:00:39;7.75;;;4.65;;
39970;SDS011;35425;51.142;17.178;2023-02-15T08:03:24;6.18;;;5.05;;
39970;SDS011;35425;51.142;17.178;2023-02-15T08:05:56;5.53;;;5.03;;
39970;SDS011;35425;51.142;17.178;2023-02-15T08:08:24;5.90;;;4.88;;
39970;SDS011;35425;51.142;17.178;2023-02-15T08:11:07;5.50;;;5.00;;
39970;SDS011;35425;51.142;17.178;2023-02-15T08:16:25;5.65;;;5.00;;
39970;SDS011;35425;51.142;17.178;2023-02-15T08:18:52;6.55;;;5.05;;
39970;SDS011;35425;51.142;17.178;2023-02-15T08:21:19;6.78;;;5.53;;
39970;SDS011;35425;51.142;17.178;2023-02-15T08:23:46;6.20;;;5.10;;
39970;SDS011;35425;51.142;17.178;2023-02-15T08:26:12;6.38;;;5.72;;
39970;SDS011;35425;51.142;17.178;2023-02-15T08:28:40;6.18;;;5.10;;
39970;SDS011;35425;51.142;17.178;2023-02-15T08:31:08;5.68;;;5.07;;
39970;SDS011;35425;51.142;17.178;2023-02-15T08:33:35;7.05;;;5.43;;
39970;SDS011;35425;51.142;17.178;2023-02-15T08:36:03;6.20;;;5.25;;
39970;SDS011;35425;51.142;17.178;2023-02-15T08:38:30;5.32;;;4.75;;
39970;SDS011;35425;51.142;17.178;2023-02-15T08:41:08;6.50;;;5.15;;
39970;SDS011;35425;51.142;17.178;2023-02-15T08:43:35;6.00;;;5.40;;
39970;SDS011;35425;51.142;17.178;2023-02-15T08:46:01;6.20;;;5.60;;
39970;SDS011;35425;51.142;17.178;2023-02-15T08:48:28;5.60;;;5.00;;
39970;SDS011;35425;51.142;17.178;2023-02-15T08:50:54;5.97;;;5.35;;
39970;SDS011;35425;51.142;17.178;2023-02-15T08:53:21;6.07;;;5.22;;
39970;SDS011;35425;51.142;17.178;2023-02-15T08:55:54;6.60;;;5.40;;
39970;SDS011;35425;51.142;17.178;2023-02-15T08:58:21;6.28;;;5.40;;
39970;SDS011;35425;51.142;17.178;2023-02-15T09:00:47;6.68;;;5.78;;
39970;SDS011;35425;51.142;17.178;2023-02-15T09:03:14;5.55;;;5.05;;
39970;SDS011;35425;51.142;17.178;2023-02-15T09:05:40;7.32;;;5.93;;
39970;SDS011;35425;51.142;17.178;2023-02-15T09:08:07;7.10;;;5.50;;
39970;SDS011;35425;51.142;17.178;2023-02-15T09:10:33;6.70;;;5.32;;
39970;SDS011;35425;51.142;17.178;2023-02-15T09:13:00;7.95;;;5.90;;
39970;SDS011;35425;51.142;17.178;2023-02-15T09:15:26;5.95;;;5.35;;
39970;SDS011;35425;51.142;17.178;2023-02-15T09:17:53;6.50;;;5.75;;
39970;SDS011;35425;51.142;17.178;2023-02-15T09:20:19;6.07;;;5.38;;
39970;SDS011;35425;51.142;17.178;2023-02-15T09:22:46;7.10;;;5.95;;
39970;SDS011;35425;51.142;17.178;2023-02-15T09:25:12;6.20;;;5.25;;
39970;SDS011;35425;51.142;17.178;2023-02-15T09:27:39;6.78;;;5.65;;
39970;SDS011;35425;51.142;17.178;2023-02-15T09:30:07;6.40;;;5.80;;
39970;SDS011;35425;51.142;17.178;2023-02-15T09:32:34;6.00;;;4.93;;
39970;SDS011;35425;51.142;17.178;2023-02-15T09:35:00;5.82;;;4.75;;
39970;SDS011;35425;51.142;17.178;2023-02-15T09:37:27;6.25;;;5.65;;
39970;SDS011;35425;51.142;17.178;2023-02-15T09:39:53;6.15;;;5.55;;
39970;SDS011;35425;51.142;17.178;2023-02-15T09:42:25;6.72;;;5.82;;
39970;SDS011;35425;51.142;17.178;2023-02-15T09:55:21;6.00;;;5.50;;
39970;SDS011;35425;51.142;17.178;2023-02-15T09:57:58;5.70;;;5.20;;
39970;SDS011;35425;51.142;17.178;2023-02-15T10:03:05;7.15;;;6.45;;
39970;SDS011;35425;51.142;17.178;2023-02-15T10:08:21;6.15;;;5.53;;
39970;SDS011;35425;51.142;17.178;2023-02-15T10:10:57;7.80;;;5.97;;
39970;SDS011;35425;51.142;17.178;2023-02-15T10:13:50;6.30;;;5.70;;
39970;SDS011;35425;51.142;17.178;2023-02-15T10:19:11;7.93;;;6.85;;
39970;SDS011;35425;51.142;17.178;2023-02-15T10:27:13;7.22;;;6.53;;
39970;SDS011;35425;51.142;17.178;2023-02-15T10:29:44;8.48;;;7.63;;
39970;SDS011;35425;51.142;17.178;2023-02-15T10:34:39;8.05;;;6.72;;
39970;SDS011;35425;51.142;17.178;2023-02-15T10:39:51;7.63;;;6.78;;
39970;SDS011;35425;51.142;17.178;2023-02-15T10:55:18;9.07;;;7.78;;
39970;SDS011;35425;51.142;17.178;2023-02-15T11:08:21;10.48;;;9.48;;
39970;SDS011;35425;51.142;17.178;2023-02-15T11:10:51;9.85;;;8.95;;
39970;SDS011;35425;51.142;17.178;2023-02-15T11:13:21;8.48;;;7.65;;
39970;SDS011;35425;51.142;17.178;2023-02-15T11:23:20;10.73;;;7.53;;
39970;SDS011;35425;51.142;17.178;2023-02-15T11:26:03;9.07;;;8.25;;
39970;SDS011;35425;51.142;17.178;2023-02-15T11:31:18;9.15;;;7.82;;
39970;SDS011;35425;51.142;17.178;2023-02-15T11:33:47;10.23;;;9.23;;
39970;SDS011;35425;51.142;17.178;2023-02-15T11:36:18;8.65;;;7.85;;
39970;SDS011;35425;51.142;17.178;2023-02-15T11:38:46;9.32;;;8.30;;
39970;SDS011;35425;51.142;17.178;2023-02-15T11:41:16;8.80;;;8.00;;
39970;SDS011;35425;51.142;17.178;2023-02-15T11:43:49;8.65;;;7.75;;
39970;SDS011;35425;51.142;17.178;2023-02-15T11:46:18;8.52;;;7.55;;
39970;SDS011;35425;51.142;17.178;2023-02-15T11:48:47;8.52;;;7.70;;
39970;SDS011;35425;51.142;17.178;2023-02-15T11:51:14;8.60;;;7.80;;
39970;SDS011;35425;51.142;17.178;2023-02-15T11:53:42;8.70;;;7.90;;
39970;SDS011;35425;51.142;17.178;2023-02-15T11:56:16;8.68;;;7.88;;
39970;SDS011;35425;51.142;17.178;2023-02-15T11:58:54;8.77;;;7.88;;
39970;SDS011;35425;51.142;17.178;2023-02-15T12:01:35;8.50;;;7.70;;
39970;SDS011;35425;51.142;17.178;2023-02-15T12:04:13;8.82;;;7.93;;
39970;SDS011;35425;51.142;17.178;2023-02-15T12:07:05;10.40;;;8.20;;
39970;SDS011;35425;51.142;17.178;2023-02-15T12:09:33;9.02;;;8.13;;
39970;SDS011;35425;51.142;17.178;2023-02-15T12:14:27;9.30;;;8.05;;
39970;SDS011;35425;51.142;17.178;2023-02-15T12:17:12;8.90;;;8.00;;
39970;SDS011;35425;51.142;17.178;2023-02-15T12:19:39;8.80;;;7.90;;
39970;SDS011;35425;51.142;17.178;2023-02-15T12:22:11;9.30;;;8.40;;
39970;SDS011;35425;51.142;17.178;2023-02-15T12:24:45;9.10;;;8.20;;
39970;SDS011;35425;51.142;17.178;2023-02-15T12:29:42;8.55;;;7.72;;
39970;SDS011;35425;51.142;17.178;2023-02-15T12:32:17;8.82;;;7.93;;
39970;SDS011;35425;51.142;17.178;2023-02-15T12:34:44;9.10;;;8.20;;
39970;SDS011;35425;51.142;17.178;2023-02-15T12:37:30;9.25;;;8.35;;
39970;SDS011;35425;51.142;17.178;2023-02-15T12:40:02;9.02;;;8.05;;
39970;SDS011;35425;51.142;17.178;2023-02-15T12:42:43;9.18;;;8.30;;
39970;SDS011;35425;51.142;17.178;2023-02-15T12:45:21;9.32;;;7.97;;
39970;SDS011;35425;51.142;17.178;2023-02-15T12:47:49;8.75;;;7.90;;
39970;SDS011;35425;51.142;17.178;2023-02-15T12:50:33;8.52;;;7.72;;
39970;SDS011;35425;51.142;17.178;2023-02-15T12:53:08;9.48;;;8.50;;
39970;SDS011;35425;51.142;17.178;2023-02-15T12:55:38;8.55;;;7.72;;
39970;SDS011;35425;51.142;17.178;2023-02-15T12:58:16;8.90;;;7.57;;
39970;SDS011;35425;51.142;17.178;2023-02-15T13:00:44;10.98;;;8.30;;
39970;SDS011;35425;51.142;17.178;2023-02-15T13:03:20;8.32;;;7.57;;
39970;SDS011;35425;51.142;17.178;2023-02-15T13:05:49;8.57;;;7.65;;
39970;SDS011;35425;51.142;17.178;2023-02-15T13:08:20;10.48;;;9.38;;
39970;SDS011;35425;51.142;17.178;2023-02-15T13:11:02;8.10;;;7.30;;
39970;SDS011;35425;51.142;17.178;2023-02-15T13:13:33;9.85;;;8.32;;
39970;SDS011;35425;51.142;17.178;2023-02-15T13:16:10;9.43;;;8.10;;
39970;SDS011;35425;51.142;17.178;2023-02-15T13:18:38;9.43;;;8.30;;
39970;SDS011;35425;51.142;17.178;2023-02-15T13:21:08;9.02;;;8.13;;
39970;SDS011;35425;51.142;17.178;2023-02-15T13:23:35;9.13;;;8.13;;
39970;SDS011;35425;51.142;17.178;2023-02-15T13:26:04;9.60;;;8.07;;
39970;SDS011;35425;51.142;17.178;2023-02-15T13:28:35;12.65;;;10.02;;
39970;SDS011;35425;51.142;17.178;2023-02-15T13:33:31;10.52;;;8.63;;
39970;SDS011;35425;51.142;17.178;2023-02-15T13:41:03;9.85;;;8.85;;
39970;SDS011;35425;51.142;17.178;2023-02-15T13:43:46;10.23;;;9.10;;
39970;SDS011;35425;51.142;17.178;2023-02-15T13:54:09;9.73;;;8.73;;
39970;SDS011;35425;51.142;17.178;2023-02-15T14:01:56;9.48;;;8.48;;
39970;SDS011;35425;51.142;17.178;2023-02-15T14:07:11;10.38;;;9.10;;
39970;SDS011;35425;51.142;17.178;2023-02-15T14:20:00;9.80;;;8.80;;
39970;SDS011;35425;51.142;17.178;2023-02-15T14:22:51;9.48;;;8.48;;
39970;SDS011;35425;51.142;17.178;2023-02-15T14:30:21;9.05;;;7.93;;
39970;SDS011;35425;51.142;17.178;2023-02-15T14:32:51;9.50;;;8.50;;
39970;SDS011;35425;51.142;17.178;2023-02-15T14:35:19;8.75;;;7.85;;
39970;SDS011;35425;51.142;17.178;2023-02-15T14:37:58;9.68;;;8.68;;
39970;SDS011;35425;51.142;17.178;2023-02-15T14:43:15;9.57;;;8.60;;
39970;SDS011;35425;51.142;17.178;2023-02-15T14:48:16;8.88;;;7.97;;
39970;SDS011;35425;51.142;17.178;2023-02-15T14:50:46;8.98;;;8.07;;
39970;SDS011;35425;51.142;17.178;2023-02-15T14:53:24;9.48;;;8.48;;
39970;SDS011;35425;51.142;17.178;2023-02-15T14:58:31;9.38;;;8.27;;
39970;SDS011;35425;51.142;17.178;2023-02-15T15:01:08;9.15;;;8.25;;
39970;SDS011;35425;51.142;17.178;2023-02-15T15:03:35;9.02;;;8.13;;
39970;SDS011;35425;51.142;17.178;2023-02-15T15:06:03;9.20;;;8.32;;
39970;SDS011;35425;51.142;17.178;2023-02-15T15:08:36;9.30;;;8.35;;
39970;SDS011;35425;51.142;17.178;2023-02-15T15:14:08;8.90;;;8.00;;
39970;SDS011;35425;51.142;17.178;2023-02-15T15:19:02;8.82;;;7.93;;
39970;SDS011;35425;51.142;17.178;2023-02-15T15:24:10;9.20;;;8.30;;
39970;SDS011;35425;51.142;17.178;2023-02-15T15:29:42;9.90;;;8.88;;
39970;SDS011;35425;51.142;17.178;2023-02-15T15:32:19;9.18;;;8.27;;
39970;SDS011;35425;51.142;17.178;2023-02-15T15:35:00;10.02;;;9.02;;
39970;SDS011;35425;51.142;17.178;2023-02-15T15:37:39;9.68;;;8.68;;
39970;SDS011;35425;51.142;17.178;2023-02-15T15:50:32;10.35;;;9.25;;
39970;SDS011;35425;51.142;17.178;2023-02-15T15:53:00;10.48;;;9.35;;
39970;SDS011;35425;51.142;17.178;2023-02-15T15:55:28;10.95;;;9.82;;
39970;SDS011;35425;51.142;17.178;2023-02-15T15:57:56;10.70;;;9.60;;
39970;SDS011;35425;51.142;17.178;2023-02-15T16:03:30;11.20;;;9.93;;
39970;SDS011;35425;51.142;17.178;2023-02-15T16:05:55;11.02;;;9.90;;
39970;SDS011;35425;51.142;17.178;2023-02-15T16:08:32;10.73;;;9.65;;
39970;SDS011;35425;51.142;17.178;2023-02-15T16:10:59;10.93;;;9.82;;
39970;SDS011;35425;51.142;17.178;2023-02-15T16:13:26;10.73;;;9.60;;
39970;SDS011;35425;51.142;17.178;2023-02-15T16:15:53;11.02;;;9.93;;
39970;SDS011;35425;51.142;17.178;2023-02-15T16:18:22;10.77;;;9.68;;
39970;SDS011;35425;51.142;17.178;2023-02-15T16:20:54;11.60;;;9.77;;
39970;SDS011;35425;51.142;17.178;2023-02-15T16:28:35;11.18;;;9.68;;
39970;SDS011;35425;51.142;17.178;2023-02-15T16:31:11;10.70;;;9.60;;
39970;SDS011;35425;51.142;17.178;2023-02-15T16:33:39;11.50;;;10.32;;
39970;SDS011;35425;51.142;17.178;2023-02-15T16:36:06;11.02;;;9.68;;
39970;SDS011;35425;51.142;17.178;2023-02-15T16:41:21;10.95;;;9.82;;
39970;SDS011;35425;51.142;17.178;2023-02-15T16:43:49;11.15;;;9.68;;
39970;SDS011;35425;51.142;17.178;2023-02-15T16:46:17;10.38;;;9.27;;
39970;SDS011;35425;51.142;17.178;2023-02-15T16:48:47;11.18;;;9.68;;
39970;SDS011;35425;51.142;17.178;2023-02-15T16:51:18;11.43;;;9.50;;
39970;SDS011;35425;51.142;17.178;2023-02-15T16:53:46;11.52;;;9.73;;
39970;SDS011;35425;51.142;17.178;2023-02-15T16:56:14;11.00;;;9.48;;
39970;SDS011;35425;51.142;17.178;2023-02-15T16:58:42;11.55;;;10.35;;
39970;SDS011;35425;51.142;17.178;2023-02-15T17:01:11;12.27;;;10.18;;
39970;SDS011;35425;51.142;17.178;2023-02-15T17:03:38;11.50;;;9.88;;
39970;SDS011;35425;51.142;17.178;2023-02-15T17:06:18;11.52;;;9.88;;
39970;SDS011;35425;51.142;17.178;2023-02-15T17:08:45;12.38;;;10.32;;
39970;SDS011;35425;51.142;17.178;2023-02-15T17:11:19;12.25;;;10.80;;
39970;SDS011;35425;51.142;17.178;2023-02-15T17:16:36;12.35;;;10.50;;
39970;SDS011;35425;51.142;17.178;2023-02-15T17:24:28;13.75;;;11.38;;
39970;SDS011;35425;51.142;17.178;2023-02-15T17:26:58;11.90;;;10.57;;
39970;SDS011;35425;51.142;17.178;2023-02-15T17:29:36;12.30;;;11.02;;
39970;SDS011;35425;51.142;17.178;2023-02-15T17:32:04;13.23;;;11.40;;
39970;SDS011;35425;51.142;17.178;2023-02-15T17:34:48;12.98;;;11.07;;
39970;SDS011;35425;51.142;17.178;2023-02-15T17:39:54;14.32;;;12.05;;
39970;SDS011;35425;51.142;17.178;2023-02-15T17:42:20;13.43;;;12.02;;
39970;SDS011;35425;51.142;17.178;2023-02-15T17:44:47;14.15;;;12.48;;
39970;SDS011;35425;51.142;17.178;2023-02-15T17:47:18;14.07;;;12.50;;
39970;SDS011;35425;51.142;17.178;2023-02-15T17:49:45;15.23;;;13.63;;